Time;durP1;ratioP1;P1;durP2;ratioP2;P2;SDS_P1;SDS_P2;PMS_P1;PMS_P2;Temp;Humidity;BMP_temperature;BMP_pressure;BME280_temperature;BME280_humidity;BME280_pressure;Samples;Min_cycle;Max_cycle;Signal;HPM_P1;HPM_P2
2023/05/24 00:01:24;;;;;;;32.38;6.13;;;7.50;99.90;;;;;;5096226;28;20134;-68
2023/05/24 00:03:51;;;;;;;31.20;6.57;;;7.50;99.90;;;;;;5098394;28;20031;-70
2023/05/24 00:06:20;;;;;;;29.60;6.72;;;7.50;99.90;;;;;;5098148;28;20066;-70
2023/05/24 00:08:46;;;;;;;30.38;5.70;;;7.50;99.90;;;;;;5098412;28;20035;-69
2023/05/24 00:11:12;;;;;;;26.23;5.13;;;7.50;99.90;;;;;;5081449;28;20047;-70
2023/05/24 00:13:37;;;;;;;36.67;6.35;;;7.50;99.90;;;;;;5098919;28;20390;-68
2023/05/24 00:16:03;;;;;;;30.52;5.70;;;7.60;99.90;;;;;;5099367;28;20445;-70
2023/05/24 00:18:30;;;;;;;30.58;6.43;;;7.60;99.90;;;;;;5087917;28;20509;-70
2023/05/24 00:20:57;;;;;;;32.47;6.45;;;7.70;99.90;;;;;;5098037;28;20036;-69
2023/05/24 00:23:24;;;;;;;28.23;5.40;;;7.70;99.90;;;;;;5101366;28;20114;-69
2023/05/24 00:25:50;;;;;;;30.83;5.60;;;7.70;99.90;;;;;;5101304;28;20665;-68
2023/05/24 00:28:16;;;;;;;19.20;4.88;;;7.80;99.90;;;;;;5093569;28;20093;-68
2023/05/24 00:30:42;;;;;;;23.30;5.50;;;7.80;99.90;;;;;;5098426;28;20445;-68
2023/05/24 00:33:07;;;;;;;32.38;5.75;;;7.90;99.90;;;;;;5098400;28;20051;-69
2023/05/24 00:35:33;;;;;;;29.27;6.45;;;8.00;99.90;;;;;;5101470;28;20447;-69
2023/05/24 00:37:59;;;;;;;24.65;5.40;;;8.00;99.90;;;;;;5097937;28;20133;-70
2023/05/24 00:40:24;;;;;;;24.63;5.78;;;8.00;99.90;;;;;;5080747;28;20502;-69
2023/05/24 00:42:50;;;;;;;24.60;5.78;;;8.00;99.90;;;;;;5101041;28;20043;-68
2023/05/24 00:45:16;;;;;;;26.77;5.65;;;8.20;99.90;;;;;;5099818;28;20132;-69
2023/05/24 00:47:41;;;;;;;28.13;6.05;;;8.00;99.90;;;;;;5086248;28;20527;-70
2023/05/24 00:50:11;;;;;;;25.27;5.55;;;8.00;99.90;;;;;;5105366;28;20521;-68
2023/05/24 00:52:38;;;;;;;44.88;7.45;;;8.00;99.90;;;;;;5103751;28;20266;-68
2023/05/24 00:55:05;;;;;;;32.75;6.38;;;8.00;99.90;;;;;;5099030;28;20044;-69
2023/05/24 00:57:32;;;;;;;17.95;5.25;;;8.00;99.90;;;;;;5100677;28;20055;-68
2023/05/24 00:59:58;;;;;;;34.13;5.95;;;8.00;99.90;;;;;;5103824;28;20343;-68
2023/05/24 01:02:24;;;;;;;31.25;6.15;;;8.00;99.90;;;;;;5104063;28;20051;-68
2023/05/24 01:04:50;;;;;;;23.67;5.38;;;8.00;99.90;;;;;;5097580;28;20123;-70
2023/05/24 01:07:53;;;;;;;29.48;5.65;;;8.00;99.90;;;;;;5100210;28;20119;-69
2023/05/24 01:10:18;;;;;;;26.25;5.88;;;8.00;99.90;;;;;;5093958;28;20047;-69
2023/05/24 01:12:55;;;;;;;27.15;5.43;;;7.90;99.90;;;;;;5103687;28;20073;-69
2023/05/24 01:15:41;;;;;;;30.52;5.88;;;7.90;99.90;;;;;;5083982;28;20051;-69
2023/05/24 01:18:14;;;;;;;25.85;5.70;;;7.90;99.90;;;;;;5100238;28;20406;-68
2023/05/24 01:20:41;;;;;;;26.48;6.63;;;7.80;99.90;;;;;;5082111;28;20051;-69
2023/05/24 01:23:55;;;;;;;28.00;5.00;;;7.80;99.90;;;;;;5100950;28;20083;-69
2023/05/24 01:26:41;;;;;;;27.08;5.20;;;7.80;99.90;;;;;;5014963;28;20141;-69
2023/05/24 01:29:07;;;;;;;34.65;6.07;;;7.90;99.90;;;;;;5020190;28;20060;-68
2023/05/24 01:31:34;;;;;;;34.47;5.93;;;8.20;99.90;;;;;;5017136;28;20046;-69
2023/05/24 01:34:00;;;;;;;27.60;5.63;;;7.80;99.90;;;;;;5017437;28;20048;-68
2023/05/24 01:36:26;;;;;;;29.00;6.32;;;7.80;99.90;;;;;;5016801;28;20058;-68
2023/05/24 01:38:52;;;;;;;28.38;5.32;;;7.80;99.90;;;;;;5017053;28;20449;-69
2023/05/24 01:41:33;;;;;;;33.35;4.85;;;7.80;99.90;;;;;;5017209;28;20132;-69
2023/05/24 01:44:09;;;;;;;27.63;4.93;;;7.90;99.90;;;;;;5020186;28;20057;-69
2023/05/24 01:46:36;;;;;;;24.63;5.60;;;7.90;99.90;;;;;;5002163;28;20088;-69
2023/05/24 01:49:21;;;;;;;27.75;5.15;;;7.90;99.90;;;;;;5015680;28;20080;-68
2023/05/24 01:52:21;;;;;;;29.90;5.45;;;8.00;99.90;;;;;;5019806;28;20053;-69
2023/05/24 01:54:51;;;;;;;23.33;5.47;;;8.00;99.90;;;;;;4921555;28;1083125;-70
2023/05/24 01:57:20;;;;;;;28.25;5.25;;;8.00;99.90;;;;;;4959724;28;20055;-69
2023/05/24 01:59:46;;;;;;;27.17;5.07;;;8.10;99.90;;;;;;4943581;28;20051;-68
2023/05/24 02:02:12;;;;;;;19.58;4.45;;;8.10;99.90;;;;;;4974404;28;20165;-69
2023/05/24 02:04:38;;;;;;;25.80;5.15;;;8.10;99.90;;;;;;5021352;28;20949;-69
2023/05/24 02:07:04;;;;;;;29.50;5.50;;;8.10;99.90;;;;;;5004636;28;20065;-69
2023/05/24 02:09:29;;;;;;;23.83;4.82;;;8.10;99.90;;;;;;5024385;28;20546;-70
2023/05/24 02:11:55;;;;;;;24.80;4.35;;;8.80;99.90;;;;;;5024229;28;20061;-68
2023/05/24 02:14:21;;;;;;;25.08;5.20;;;8.20;99.90;;;;;;5010723;28;20044;-69
2023/05/24 02:16:46;;;;;;;21.08;5.35;;;8.20;99.90;;;;;;5013473;28;20049;-69
2023/05/24 02:19:13;;;;;;;25.02;4.82;;;8.60;99.90;;;;;;5025730;28;20058;-70
2023/05/24 02:21:40;;;;;;;26.05;4.20;;;8.40;99.90;;;;;;5012160;28;20067;-72
2023/05/24 02:24:06;;;;;;;27.92;4.40;;;8.30;99.90;;;;;;5014067;28;20649;-69
2023/05/24 02:26:32;;;;;;;30.15;5.47;;;8.30;99.90;;;;;;5024372;28;20049;-69
2023/05/24 02:28:58;;;;;;;24.50;4.55;;;8.30;99.90;;;;;;5015004;28;20060;-69
2023/05/24 02:31:27;;;;;;;30.63;5.00;;;8.30;99.90;;;;;;5088654;28;20072;-69
2023/05/24 02:33:56;;;;;;;21.77;4.75;;;8.30;99.90;;;;;;5099159;28;20039;-69
2023/05/24 02:36:22;;;;;;;22.35;4.40;;;8.90;99.90;;;;;;5096682;28;20040;-69
2023/05/24 02:38:49;;;;;;;22.13;4.18;;;8.40;99.90;;;;;;5091766;28;20040;-69
2023/05/24 02:41:17;;;;;;;21.67;5.03;;;8.30;99.90;;;;;;5081310;28;20846;-71
2023/05/24 02:43:46;;;;;;;32.97;5.28;;;8.30;99.90;;;;;;5091198;28;20539;-69
2023/05/24 02:46:12;;;;;;;25.75;4.65;;;8.30;99.90;;;;;;5103180;28;20047;-70
2023/05/24 02:48:38;;;;;;;22.50;4.45;;;8.40;99.90;;;;;;5083372;28;20048;-69
2023/05/24 02:51:04;;;;;;;23.25;4.22;;;8.40;99.90;;;;;;5097857;28;20073;-69
2023/05/24 02:53:32;;;;;;;24.67;5.10;;;8.90;99.90;;;;;;5100087;28;20051;-68
2023/05/24 02:55:58;;;;;;;21.15;4.57;;;8.40;99.90;;;;;;5094504;28;20522;-69
2023/05/24 02:58:27;;;;;;;22.08;4.93;;;8.40;99.90;;;;;;5081262;28;20044;-69
2023/05/24 03:00:53;;;;;;;23.42;4.45;;;8.40;99.90;;;;;;5102326;28;20127;-69
2023/05/24 03:03:19;;;;;;;22.05;5.40;;;8.40;99.90;;;;;;5091599;28;20119;-68
2023/05/24 03:05:45;;;;;;;23.52;4.70;;;8.30;99.90;;;;;;5064156;28;20068;-69
2023/05/24 03:08:10;;;;;;;25.73;5.43;;;8.30;99.90;;;;;;5098839;28;20059;-73
2023/05/24 03:10:36;;;;;;;17.38;4.40;;;8.20;99.90;;;;;;5090368;28;20436;-68
2023/05/24 03:13:01;;;;;;;25.10;5.03;;;8.30;99.90;;;;;;5073479;28;20062;-71
2023/05/24 03:15:27;;;;;;;23.23;4.65;;;8.20;99.90;;;;;;5099664;28;20040;-68
2023/05/24 03:17:52;;;;;;;26.33;5.35;;;8.30;99.90;;;;;;5099768;28;20441;-69
2023/05/24 03:20:19;;;;;;;21.08;4.82;;;8.50;99.90;;;;;;5083971;28;20043;-70
2023/05/24 03:22:45;;;;;;;25.15;4.25;;;8.30;99.90;;;;;;5098436;28;20487;-67
2023/05/24 03:25:11;;;;;;;23.92;4.78;;;8.30;99.90;;;;;;5091997;28;20119;-69
2023/05/24 03:27:37;;;;;;;22.50;4.47;;;8.30;99.90;;;;;;5100047;28;20088;-69
2023/05/24 03:30:05;;;;;;;24.02;4.72;;;8.40;99.90;;;;;;5094264;28;20123;-68
2023/05/24 03:32:31;;;;;;;20.80;4.80;;;8.40;99.90;;;;;;5094118;28;20036;-68
2023/05/24 03:34:59;;;;;;;32.80;5.25;;;8.40;99.90;;;;;;5100418;28;20063;-70
2023/05/24 03:37:25;;;;;;;29.55;5.05;;;8.40;99.90;;;;;;5100336;28;20497;-68
2023/05/24 03:39:50;;;;;;;26.35;4.40;;;8.50;99.90;;;;;;5097611;28;20036;-70
2023/05/24 03:42:16;;;;;;;22.38;4.15;;;8.60;99.90;;;;;;5098443;28;20079;-68
2023/05/24 03:44:42;;;;;;;29.90;4.60;;;8.50;99.90;;;;;;5096401;28;20051;-67
2023/05/24 03:47:08;;;;;;;24.65;4.15;;;8.60;99.90;;;;;;5098579;28;20789;-69
2023/05/24 03:49:34;;;;;;;28.50;5.43;;;8.60;99.90;;;;;;5099945;28;20118;-68
2023/05/24 03:51:59;;;;;;;24.65;4.35;;;8.60;99.90;;;;;;5101761;28;20561;-69
2023/05/24 03:54:25;;;;;;;26.95;4.45;;;8.70;99.90;;;;;;5098674;28;20159;-68
2023/05/24 03:56:52;;;;;;;26.60;5.07;;;8.70;99.90;;;;;;5098591;28;20085;-70
2023/05/24 03:59:18;;;;;;;26.60;4.60;;;8.70;99.90;;;;;;5095648;28;20044;-68
2023/05/24 04:01:43;;;;;;;27.50;4.80;;;8.70;99.90;;;;;;5099594;28;20130;-69
2023/05/24 04:04:09;;;;;;;20.88;4.13;;;8.80;99.90;;;;;;5100243;28;20047;-69
2023/05/24 04:06:35;;;;;;;26.83;5.30;;;8.80;99.90;;;;;;5093617;28;20490;-69
2023/05/24 04:09:03;;;;;;;28.30;4.88;;;8.80;99.90;;;;;;5100969;28;20076;-69
2023/05/24 04:11:29;;;;;;;24.08;4.53;;;8.80;99.90;;;;;;5079152;28;20108;-69
2023/05/24 04:13:56;;;;;;;27.58;5.43;;;8.90;99.90;;;;;;5097891;28;20490;-68
2023/05/24 04:16:26;;;;;;;19.88;4.18;;;9.10;99.90;;;;;;5092987;28;20040;-70
2023/05/24 04:18:55;;;;;;;21.63;4.40;;;9.00;99.90;;;;;;5080545;28;20506;-69
2023/05/24 04:21:21;;;;;;;21.55;4.57;;;9.00;99.90;;;;;;5084904;28;20039;-70
2023/05/24 04:23:47;;;;;;;19.38;3.30;;;9.00;99.90;;;;;;5101666;28;20039;-69
2023/05/24 04:26:14;;;;;;;23.17;4.53;;;9.00;99.90;;;;;;5097112;28;20047;-68
2023/05/24 04:28:40;;;;;;;22.27;4.50;;;9.00;99.90;;;;;;5094853;28;20807;-69
2023/05/24 04:31:06;;;;;;;25.63;4.03;;;9.00;99.90;;;;;;5101692;28;20036;-71
2023/05/24 04:33:33;;;;;;;26.23;4.13;;;9.10;99.90;;;;;;5084686;28;20047;-72
2023/05/24 04:36:02;;;;;;;17.67;4.32;;;9.10;99.90;;;;;;5101400;28;20040;-75
2023/05/24 04:38:31;;;;;;;30.27;4.97;;;9.20;99.90;;;;;;5091992;28;20048;-68
2023/05/24 04:40:59;;;;;;;20.73;4.65;;;9.30;99.90;;;;;;5095382;28;20093;-73
2023/05/24 04:43:25;;;;;;;23.35;4.30;;;9.30;99.90;;;;;;5098856;28;20054;-71
2023/05/24 04:45:53;;;;;;;23.33;4.93;;;9.30;99.90;;;;;;5099532;28;20039;-72
2023/05/24 04:48:23;;;;;;;19.50;4.30;;;9.40;99.90;;;;;;5092867;28;20051;-70
2023/05/24 04:50:53;;;;;;;24.75;4.50;;;9.40;99.90;;;;;;5084688;28;20043;-71
2023/05/24 04:53:20;;;;;;;23.52;3.88;;;9.50;99.90;;;;;;5079485;28;20479;-70
2023/05/24 04:55:46;;;;;;;22.73;4.10;;;9.60;99.90;;;;;;5100195;28;20055;-72
2023/05/24 04:58:12;;;;;;;21.85;4.50;;;9.60;99.90;;;;;;5094543;28;20040;-71
2023/05/24 05:00:38;;;;;;;26.13;4.60;;;9.70;99.90;;;;;;5097556;28;20051;-70
2023/05/24 05:03:04;;;;;;;23.30;4.43;;;9.80;99.90;;;;;;5097957;28;20046;-71
2023/05/24 05:05:30;;;;;;;23.88;4.85;;;9.80;99.90;;;;;;5097649;28;20040;-69
2023/05/24 05:07:56;;;;;;;20.73;4.43;;;9.90;99.90;;;;;;5099985;28;20059;-71
2023/05/24 05:10:22;;;;;;;21.63;3.90;;;10.00;99.90;;;;;;5091960;28;20036;-70
2023/05/24 05:12:48;;;;;;;22.67;3.92;;;10.10;99.90;;;;;;5097896;28;20039;-72
2023/05/24 05:15:13;;;;;;;22.38;4.70;;;10.10;99.90;;;;;;5092876;28;20093;-70
2023/05/24 05:17:39;;;;;;;24.30;4.53;;;10.10;99.90;;;;;;5079368;28;20048;-71
2023/05/24 05:20:06;;;;;;;28.90;4.82;;;10.40;99.90;;;;;;5088995;28;20051;-70
2023/05/24 05:22:31;;;;;;;28.30;4.50;;;10.10;99.90;;;;;;5098039;28;20036;-72
2023/05/24 05:24:57;;;;;;;25.05;4.68;;;10.20;99.90;;;;;;5079731;28;20487;-70
2023/05/24 05:27:22;;;;;;;21.25;4.20;;;10.20;99.90;;;;;;5098637;28;20047;-70
2023/05/24 05:29:48;;;;;;;23.58;4.05;;;10.30;99.90;;;;;;5098774;28;20861;-69
2023/05/24 05:32:14;;;;;;;18.42;3.92;;;10.20;99.90;;;;;;5101341;28;20056;-70
2023/05/24 05:34:40;;;;;;;30.75;4.88;;;10.30;99.90;;;;;;5101503;28;20476;-70
2023/05/24 05:37:06;;;;;;;19.85;4.50;;;10.30;99.90;;;;;;5101449;28;20044;-69
2023/05/24 05:39:32;;;;;;;23.27;4.75;;;10.30;99.90;;;;;;5102692;28;20048;-70
2023/05/24 05:41:58;;;;;;;25.48;5.03;;;10.40;99.90;;;;;;5092822;28;20550;-70
2023/05/24 05:44:23;;;;;;;23.25;4.60;;;10.40;99.90;;;;;;5101780;28;20487;-69
2023/05/24 05:46:49;;;;;;;21.33;3.75;;;10.40;99.90;;;;;;5096668;28;20138;-70
2023/05/24 05:49:17;;;;;;;17.50;3.53;;;10.50;99.90;;;;;;5104836;28;20135;-72
2023/05/24 05:51:45;;;;;;;24.70;5.00;;;10.50;99.90;;;;;;5077532;28;20052;-68
2023/05/24 05:54:17;;;;;;;23.38;4.75;;;10.50;99.90;;;;;;5101659;28;20399;-71
2023/05/24 05:56:45;;;;;;;27.85;4.45;;;10.50;99.90;;;;;;5103266;28;20052;-67
2023/05/24 05:59:11;;;;;;;19.90;4.95;;;10.50;99.90;;;;;;5104577;28;20051;-70
2023/05/24 06:01:37;;;;;;;19.25;3.78;;;10.50;99.90;;;;;;5080947;28;20070;-70
2023/05/24 06:04:03;;;;;;;23.52;4.20;;;10.50;99.90;;;;;;5096459;28;20050;-71
2023/05/24 06:06:29;;;;;;;25.95;4.32;;;10.60;99.90;;;;;;5082842;28;20399;-70
2023/05/24 06:08:54;;;;;;;22.67;3.70;;;10.50;99.90;;;;;;5102867;28;20486;-71
2023/05/24 06:11:20;;;;;;;17.80;3.50;;;10.60;99.90;;;;;;5099225;28;20050;-70
2023/05/24 06:13:46;;;;;;;23.42;5.25;;;10.60;99.90;;;;;;5093930;28;20062;-66
2023/05/24 06:16:13;;;;;;;21.15;3.33;;;10.60;99.90;;;;;;5100908;28;20040;-69
2023/05/24 06:18:39;;;;;;;18.02;3.78;;;10.70;99.90;;;;;;5101012;28;20071;-70
2023/05/24 06:21:09;;;;;;;20.13;4.00;;;10.70;99.90;;;;;;5102268;28;20078;-69
2023/05/24 06:23:35;;;;;;;18.17;3.58;;;10.80;99.90;;;;;;5098276;28;20483;-70
2023/05/24 06:26:01;;;;;;;19.23;3.72;;;10.80;99.90;;;;;;5101275;28;20059;-69
2023/05/24 06:28:26;;;;;;;18.35;3.80;;;10.90;99.90;;;;;;5103948;28;20402;-68
2023/05/24 06:30:52;;;;;;;16.85;3.85;;;10.90;99.90;;;;;;5103823;28;20398;-68
2023/05/24 06:33:18;;;;;;;20.15;2.90;;;10.90;99.90;;;;;;5101532;28;20051;-68
2023/05/24 06:35:43;;;;;;;16.95;3.35;;;11.00;99.90;;;;;;5096796;28;20035;-69
2023/05/24 06:38:09;;;;;;;17.10;3.10;;;11.00;99.90;;;;;;5103871;28;20043;-69
2023/05/24 06:40:34;;;;;;;21.77;3.55;;;11.10;99.90;;;;;;5091897;28;20569;-69
2023/05/24 06:43:00;;;;;;;14.20;3.72;;;11.20;99.90;;;;;;5097330;28;20047;-71
2023/05/24 06:45:26;;;;;;;14.48;3.30;;;11.30;99.90;;;;;;5093069;28;20076;-67
2023/05/24 06:47:51;;;;;;;17.33;3.92;;;11.30;99.90;;;;;;5089318;28;20036;-68
2023/05/24 06:50:17;;;;;;;19.65;3.92;;;11.40;99.90;;;;;;5103114;28;20074;-68
2023/05/24 06:52:43;;;;;;;16.98;3.42;;;11.40;99.90;;;;;;5100504;28;20083;-68
2023/05/24 06:55:09;;;;;;;14.07;3.78;;;11.50;99.90;;;;;;5098939;28;20131;-69
2023/05/24 06:57:35;;;;;;;15.85;2.97;;;11.50;99.90;;;;;;5098734;28;20051;-68
2023/05/24 07:00:00;;;;;;;12.13;2.83;;;11.60;99.90;;;;;;5099716;28;20051;-70
2023/05/24 07:02:27;;;;;;;19.00;3.33;;;11.30;99.90;;;;;;5099887;28;20150;-71
2023/05/24 07:04:53;;;;;;;14.90;3.03;;;11.80;99.90;;;;;;5101683;28;20491;-69
2023/05/24 07:07:19;;;;;;;15.30;3.33;;;11.90;99.90;;;;;;5091051;28;20097;-70
2023/05/24 07:09:46;;;;;;;12.27;2.90;;;12.00;99.90;;;;;;5093823;28;20048;-71
2023/05/24 07:12:12;;;;;;;18.98;3.38;;;12.10;99.90;;;;;;5103098;28;20039;-71
2023/05/24 07:14:37;;;;;;;18.45;3.17;;;12.20;99.90;;;;;;5103126;28;20062;-69
2023/05/24 07:17:03;;;;;;;13.93;3.20;;;12.30;99.90;;;;;;5100999;28;20485;-69
2023/05/24 07:19:29;;;;;;;19.83;3.33;;;12.30;99.90;;;;;;5090311;28;20092;-74
2023/05/24 07:21:55;;;;;;;15.55;3.35;;;12.40;99.90;;;;;;5092368;28;20048;-70
2023/05/24 07:24:21;;;;;;;16.23;3.55;;;12.70;99.90;;;;;;5073374;28;20044;-71
2023/05/24 07:26:47;;;;;;;19.48;3.95;;;12.70;99.90;;;;;;5097656;28;20054;-73
2023/05/24 07:29:13;;;;;;;16.35;3.08;;;12.70;99.90;;;;;;5092285;28;20055;-72
2023/05/24 07:31:39;;;;;;;19.38;3.72;;;12.80;99.90;;;;;;5099301;28;20387;-74
2023/05/24 07:34:04;;;;;;;18.05;3.92;;;12.90;99.90;;;;;;5099200;28;20549;-69
2023/05/24 07:36:32;;;;;;;18.95;3.22;;;13.00;99.90;;;;;;5101775;28;20454;-75
2023/05/24 07:38:59;;;;;;;17.98;3.33;;;13.00;99.90;;;;;;5079696;28;20047;-71
2023/05/24 07:41:26;;;;;;;16.48;3.22;;;12.90;99.90;;;;;;5099091;28;20117;-71
2023/05/24 07:43:55;;;;;;;16.80;3.85;;;13.10;99.90;;;;;;5099525;28;20130;-72
2023/05/24 07:46:21;;;;;;;20.90;3.20;;;13.00;99.90;;;;;;5099633;28;20178;-69
2023/05/24 07:48:47;;;;;;;16.60;2.92;;;13.00;99.90;;;;;;5094549;28;20130;-70
2023/05/24 07:51:12;;;;;;;15.00;3.10;;;13.10;99.90;;;;;;5102700;28;20117;-71
2023/05/24 07:53:39;;;;;;;15.20;3.00;;;13.00;99.90;;;;;;5100262;28;20055;-73
2023/05/24 07:56:06;;;;;;;17.80;2.95;;;13.10;99.90;;;;;;5099619;28;20052;-71
2023/05/24 07:58:32;;;;;;;21.90;3.85;;;13.10;99.90;;;;;;5099415;28;20052;-72
2023/05/24 08:00:58;;;;;;;21.38;3.75;;;13.20;99.90;;;;;;5102849;28;20037;-70
2023/05/24 08:03:24;;;;;;;17.65;3.78;;;13.10;99.90;;;;;;5102552;28;20044;-72
2023/05/24 08:05:50;;;;;;;20.73;4.50;;;13.10;99.90;;;;;;5100600;28;20052;-70
2023/05/24 08:08:16;;;;;;;19.27;4.15;;;13.10;99.90;;;;;;5099119;28;20048;-71
2023/05/24 08:10:42;;;;;;;16.67;3.90;;;13.20;99.90;;;;;;5099728;28;20032;-70
2023/05/24 08:13:08;;;;;;;12.93;3.28;;;13.20;99.90;;;;;;5102547;28;20067;-72
2023/05/24 08:15:33;;;;;;;12.75;2.90;;;13.20;99.90;;;;;;5102772;28;20046;-69
2023/05/24 08:17:59;;;;;;;13.95;4.00;;;13.30;99.90;;;;;;5081494;28;20082;-71
2023/05/24 08:20:24;;;;;;;15.55;3.45;;;13.20;99.90;;;;;;5102161;28;20050;-69
2023/05/24 08:22:50;;;;;;;13.52;3.22;;;13.20;99.90;;;;;;5102704;28;20043;-69
2023/05/24 08:25:16;;;;;;;14.80;3.28;;;13.20;99.90;;;;;;5101821;28;20050;-70
2023/05/24 08:27:41;;;;;;;13.90;2.78;;;13.30;99.90;;;;;;5102130;28;20046;-70
2023/05/24 08:30:07;;;;;;;21.80;4.45;;;13.40;99.90;;;;;;5101474;28;20036;-70
2023/05/24 08:32:33;;;;;;;10.32;2.50;;;13.50;99.90;;;;;;5080565;28;20048;-73
2023/05/24 08:34:59;;;;;;;9.32;2.20;;;13.50;99.90;;;;;;5098809;28;20047;-70
2023/05/24 08:37:25;;;;;;;9.15;2.60;;;13.50;99.90;;;;;;5100569;28;20059;-72
2023/05/24 08:39:51;;;;;;;13.73;3.75;;;13.70;99.90;;;;;;5080158;28;20048;-72
2023/05/24 08:42:16;;;;;;;13.57;3.53;;;13.60;99.90;;;;;;5098919;28;20120;-72
2023/05/24 08:44:56;;;;;;;9.23;2.70;;;13.80;99.90;;;;;;5098083;28;20483;-71
2023/05/24 08:47:24;;;;;;;12.02;3.03;;;13.90;99.90;;;;;;5093309;28;20036;-71
2023/05/24 08:49:50;;;;;;;12.02;2.60;;;14.00;99.90;;;;;;5092700;28;20039;-69
2023/05/24 08:52:17;;;;;;;17.67;5.75;;;14.10;99.90;;;;;;5097425;28;20478;-69
2023/05/24 08:54:43;;;;;;;23.55;10.55;;;14.00;99.90;;;;;;5082161;28;20571;-72
2023/05/24 08:57:10;;;;;;;21.38;8.88;;;14.00;99.90;;;;;;5092367;28;20048;-70
2023/05/24 08:59:40;;;;;;;33.63;14.50;;;14.10;99.90;;;;;;5090467;28;20522;-69
2023/05/24 09:02:08;;;;;;;13.05;3.78;;;14.10;99.90;;;;;;5091718;28;20082;-69
2023/05/24 09:04:37;;;;;;;8.65;2.70;;;14.10;99.90;;;;;;5069916;28;20042;-70
2023/05/24 09:07:03;;;;;;;20.95;6.65;;;14.10;99.90;;;;;;5092923;28;20104;-70
2023/05/24 09:09:30;;;;;;;13.63;5.30;;;14.10;99.90;;;;;;5083566;28;20068;-68
2023/05/24 09:12:00;;;;;;;13.18;4.80;;;14.10;99.90;;;;;;5094288;28;20051;-69
2023/05/24 09:14:26;;;;;;;12.68;3.08;;;14.20;99.90;;;;;;5089032;28;20051;-68
2023/05/24 09:16:53;;;;;;;15.48;3.00;;;14.20;99.90;;;;;;5102423;28;20394;-69
2023/05/24 09:19:18;;;;;;;9.98;2.95;;;14.30;99.90;;;;;;5093247;28;20039;-70
2023/05/24 09:21:44;;;;;;;18.42;7.28;;;14.30;99.90;;;;;;5081501;28;20458;-71
2023/05/24 09:24:10;;;;;;;14.98;5.00;;;14.30;99.90;;;;;;5094243;28;20117;-72
2023/05/24 09:26:36;;;;;;;14.27;4.80;;;14.40;99.90;;;;;;5093349;28;20127;-78
2023/05/24 09:29:06;;;;;;;13.20;3.05;;;14.70;99.90;;;;;;5093090;28;20459;-69
2023/05/24 09:31:33;;;;;;;14.70;3.05;;;14.80;99.90;;;;;;5089037;28;20119;-71
2023/05/24 09:33:59;;;;;;;9.68;3.20;;;14.80;99.90;;;;;;5095429;28;20119;-70
2023/05/24 09:36:28;;;;;;;15.73;3.10;;;14.90;99.90;;;;;;5085487;28;20055;-70
2023/05/24 09:39:08;;;;;;;10.77;2.78;;;14.80;99.90;;;;;;5104977;28;20074;-70
2023/05/24 09:41:37;;;;;;;10.00;2.83;;;14.80;99.90;;;;;;5102409;28;20043;-72
2023/05/24 09:44:04;;;;;;;14.65;2.65;;;15.00;99.90;;;;;;5101820;28;20051;-69
2023/05/24 09:46:35;;;;;;;6.43;2.67;;;15.20;99.90;;;;;;5102954;28;20089;-70
2023/05/24 09:49:02;;;;;;;8.98;2.28;;;15.10;99.90;;;;;;5099936;28;20176;-69
2023/05/24 09:51:29;;;;;;;9.05;2.30;;;15.30;99.90;;;;;;5101848;28;20056;-70
2023/05/24 09:54:00;;;;;;;7.75;2.30;;;15.20;99.90;;;;;;5082219;28;20475;-70
2023/05/24 09:56:26;;;;;;;10.55;2.28;;;15.40;99.90;;;;;;5101296;28;20563;-71
2023/05/24 09:58:53;;;;;;;10.75;2.38;;;15.50;99.90;;;;;;5101491;28;20094;-74
2023/05/24 10:01:23;;;;;;;8.68;2.42;;;15.50;99.90;;;;;;5101783;28;20036;-71
2023/05/24 10:03:53;;;;;;;13.13;2.58;;;15.50;99.90;;;;;;5095167;28;20047;-70
2023/05/24 10:06:19;;;;;;;12.00;2.35;;;15.50;99.90;;;;;;5095523;28;20043;-71
2023/05/24 10:08:47;;;;;;;16.45;3.00;;;15.70;99.90;;;;;;5101492;28;20100;-70
2023/05/24 10:11:13;;;;;;;10.63;3.33;;;15.70;99.90;;;;;;5103572;28;20548;-71
2023/05/24 10:13:39;;;;;;;8.90;2.47;;;15.90;99.90;;;;;;5100125;28;20118;-68
2023/05/24 10:16:04;;;;;;;12.05;3.25;;;15.90;99.90;;;;;;5101877;28;20040;-72
2023/05/24 10:18:30;;;;;;;9.93;2.58;;;16.10;99.90;;;;;;5101074;28;20066;-71
2023/05/24 10:20:56;;;;;;;12.55;2.65;;;16.10;99.90;;;;;;5101365;28;20050;-70
2023/05/24 10:23:25;;;;;;;12.27;2.50;;;16.00;99.90;;;;;;5099346;28;20568;-71
2023/05/24 10:25:58;;;;;;;11.20;2.10;;;16.00;99.90;;;;;;5080264;28;20491;-71
2023/05/24 10:28:26;;;;;;;9.57;2.47;;;15.90;99.90;;;;;;5094171;28;20048;-76
2023/05/24 10:31:11;;;;;;;12.35;2.67;;;16.20;99.90;;;;;;5100934;28;20118;-70
2023/05/24 10:33:38;;;;;;;13.85;2.70;;;16.20;99.90;;;;;;5091140;28;20065;-72
2023/05/24 10:36:06;;;;;;;10.30;3.17;;;16.20;99.90;;;;;;5100966;28;20209;-71
2023/05/24 10:38:32;;;;;;;16.60;2.90;;;16.10;99.90;;;;;;5103660;28;20040;-70
2023/05/24 10:40:58;;;;;;;13.23;3.25;;;16.60;99.90;;;;;;5103722;28;20070;-72
2023/05/24 10:43:25;;;;;;;10.98;3.33;;;16.40;99.90;;;;;;5094164;28;20048;-71
2023/05/24 10:45:51;;;;;;;14.45;3.10;;;16.40;99.90;;;;;;5103523;28;20051;-72
2023/05/24 10:48:23;;;;;;;13.25;3.17;;;16.40;99.90;;;;;;5103853;28;20040;-72
2023/05/24 10:50:48;;;;;;;15.30;3.17;;;16.40;99.90;;;;;;5100039;28;20475;-71
2023/05/24 10:53:15;;;;;;;12.55;2.92;;;16.40;99.90;;;;;;5094495;28;20092;-74
2023/05/24 10:55:58;;;;;;;9.88;2.30;;;16.40;99.90;;;;;;5082290;28;20109;-71
2023/05/24 10:58:32;;;;;;;13.80;3.10;;;16.20;99.90;;;;;;5102883;28;20486;-72
2023/05/24 11:00:58;;;;;;;9.25;2.50;;;16.30;99.90;;;;;;5099987;28;20043;-74
2023/05/24 11:03:24;;;;;;;13.25;2.78;;;16.10;99.90;;;;;;5098600;28;20044;-72
2023/05/24 11:05:53;;;;;;;13.55;2.75;;;16.10;99.90;;;;;;5099765;28;20095;-70
2023/05/24 11:08:30;;;;;;;9.35;2.42;;;16.20;99.90;;;;;;5076966;28;20636;-71
2023/05/24 11:11:25;;;;;;;8.50;2.22;;;16.50;99.90;;;;;;5089869;28;20044;-74
2023/05/24 11:13:58;;;;;;;7.85;1.92;;;16.50;99.90;;;;;;5098237;28;20052;-72
2023/05/24 11:16:39;;;;;;;12.35;2.45;;;16.40;99.90;;;;;;5088425;28;20060;-70
2023/05/24 11:19:32;;;;;;;11.88;2.47;;;16.40;99.90;;;;;;5095594;28;20044;-72
2023/05/24 11:21:58;;;;;;;13.13;3.20;;;16.50;99.90;;;;;;5041948;28;20053;-72
2023/05/24 11:24:25;;;;;;;16.25;3.05;;;16.30;99.90;;;;;;5048009;28;20163;-70
2023/05/24 11:26:51;;;;;;;14.15;3.20;;;16.30;99.90;;;;;;5047189;28;20600;-71
2023/05/24 11:29:20;;;;;;;15.90;3.17;;;16.70;99.90;;;;;;5047135;28;20059;-72
2023/05/24 11:31:53;;;;;;;10.27;1.90;;;16.70;99.90;;;;;;5047645;28;20041;-71
2023/05/24 11:34:20;;;;;;;10.60;2.67;;;16.60;99.90;;;;;;5031039;28;20099;-72
2023/05/24 11:36:46;;;;;;;11.88;2.35;;;16.80;99.90;;;;;;5047669;28;20068;-71
2023/05/24 11:39:13;;;;;;;10.75;2.53;;;16.90;99.90;;;;;;5047571;28;20427;-71
2023/05/24 11:41:39;;;;;;;10.05;2.40;;;17.10;99.90;;;;;;5047364;28;20033;-69
2023/05/24 11:44:07;;;;;;;17.23;3.20;;;17.50;99.90;;;;;;5047626;28;20549;-71
2023/05/24 11:46:33;;;;;;;13.60;3.03;;;17.70;99.90;;;;;;5047326;28;20057;-71
2023/05/24 11:48:59;;;;;;;13.80;3.05;;;17.70;99.90;;;;;;5047653;28;20143;-71
2023/05/24 11:51:30;;;;;;;11.32;2.33;;;17.50;99.90;;;;;;5047722;28;20053;-76
2023/05/24 11:53:57;;;;;;;10.40;2.20;;;17.60;99.90;;;;;;5032390;28;20049;-72
2023/05/24 11:56:24;;;;;;;13.80;2.58;;;17.60;99.90;;;;;;5047416;28;20500;-71
2023/05/24 11:58:52;;;;;;;11.77;3.13;;;17.40;99.90;;;;;;5078383;28;20066;-72
2023/05/24 12:01:27;;;;;;;12.05;2.63;;;17.00;99.90;;;;;;5098562;28;20036;-73
2023/05/24 12:03:53;;;;;;;10.55;2.22;;;16.90;99.90;;;;;;5100644;28;20047;-71
2023/05/24 12:06:20;;;;;;;11.02;2.25;;;17.10;99.90;;;;;;5080107;28;20044;-71
2023/05/24 12:08:47;;;;;;;13.43;2.92;;;16.90;99.90;;;;;;5098649;28;20087;-70
2023/05/24 12:11:13;;;;;;;9.57;2.10;;;16.70;99.90;;;;;;5101732;28;20042;-71
2023/05/24 12:13:39;;;;;;;13.77;3.00;;;16.60;99.90;;;;;;5079634;28;20051;-70
2023/05/24 12:16:05;;;;;;;9.50;2.35;;;16.60;99.90;;;;;;5100482;28;20399;-73
2023/05/24 12:18:31;;;;;;;14.32;3.10;;;16.50;99.90;;;;;;5101858;28;20040;-70
2023/05/24 12:20:57;;;;;;;12.75;2.17;;;16.40;99.90;;;;;;5101516;28;20601;-71
2023/05/24 12:23:26;;;;;;;13.55;2.47;;;16.40;99.90;;;;;;5098433;28;20078;-68
2023/05/24 12:25:58;;;;;;;13.20;2.40;;;16.30;99.90;;;;;;5098719;28;20036;-70
2023/05/24 12:28:24;;;;;;;11.82;2.40;;;16.30;99.90;;;;;;5100844;28;20490;-70
2023/05/24 12:30:50;;;;;;;11.13;2.47;;;16.20;99.90;;;;;;5101319;28;20045;-69
2023/05/24 12:33:20;;;;;;;8.07;2.20;;;16.00;99.90;;;;;;5100431;28;20044;-70
2023/05/24 12:35:46;;;;;;;15.70;2.53;;;16.10;99.90;;;;;;5079605;28;20047;-70
2023/05/24 12:38:12;;;;;;;15.73;2.58;;;16.00;99.90;;;;;;5098336;28;20079;-68
2023/05/24 12:40:42;;;;;;;13.73;3.13;;;16.00;99.90;;;;;;5104880;28;20086;-70
2023/05/24 12:43:09;;;;;;;13.85;2.58;;;15.90;99.90;;;;;;5105740;28;20040;-70